createdAt,value
2022-10-15T00:01:49.742Z,96638.78
2022-10-15T00:04:18.749Z,96633.78
2022-10-15T00:06:47.401Z,96634.50
2022-10-15T00:09:16.019Z,96632.00
2022-10-15T00:11:44.484Z,96629.09
2022-10-15T00:14:12.986Z,96616.28
2022-10-15T00:16:42.873Z,96611.06
2022-10-15T00:19:11.726Z,96613.47
2022-10-15T00:21:40.933Z,96612.41
2022-10-15T00:24:09.782Z,96613.59
2022-10-15T00:26:38.309Z,96608.47
2022-10-15T00:29:06.868Z,96604.06
2022-10-15T00:31:35.658Z,96596.84
2022-10-15T00:34:05.618Z,96600.31
2022-10-15T00:36:36.875Z,96590.84
2022-10-15T00:39:07.392Z,96587.34
2022-10-15T00:41:38.237Z,96602.06
2022-10-15T00:44:40.102Z,96593.72
2022-10-15T00:47:15.857Z,96591.38
2022-10-15T00:49:50.271Z,96591.25
2022-10-15T00:52:22.652Z,96584.66
2022-10-15T00:54:56.890Z,96592.69
2022-10-15T00:57:26.390Z,96599.72
2022-10-15T01:00:00.026Z,96592.63
2022-10-15T01:02:28.460Z,96595.56
2022-10-15T01:04:58.356Z,96593.72
2022-10-15T01:07:26.925Z,96590.53
2022-10-15T01:09:55.504Z,96585.47
2022-10-15T01:12:35.169Z,96586.81
2022-10-15T01:15:11.124Z,96571.59
2022-10-15T01:17:47.190Z,96563.84
2022-10-15T01:20:48.998Z,96559.41
2022-10-15T01:23:55.001Z,96558.78
2022-10-15T01:27:09.912Z,96546.38
2022-10-15T01:30:20.085Z,96554.25
2022-10-15T01:33:05.414Z,96554.97
2022-10-15T01:35:46.270Z,96548.59
2022-10-15T01:38:27.993Z,96539.78
2022-10-15T01:40:59.910Z,96528.44
2022-10-15T01:43:37.018Z,96527.91
2022-10-15T01:46:36.147Z,96527.97
2022-10-15T01:49:10.029Z,96521.38
2022-10-15T01:51:41.543Z,96535.03
2022-10-15T01:54:15.638Z,96523.44
2022-10-15T01:56:49.807Z,96524.56
2022-10-15T01:59:25.238Z,96524.72
2022-10-15T02:02:01.144Z,96532.00
2022-10-15T02:04:56.982Z,96530.41
2022-10-15T02:07:36.132Z,96525.84
2022-10-15T02:10:15.057Z,96519.50
2022-10-15T02:12:52.762Z,96519.31
2022-10-15T02:15:29.584Z,96511.06
2022-10-15T02:18:06.563Z,96515.47
2022-10-15T02:20:44.648Z,96513.84
2022-10-15T02:23:20.359Z,96521.69
2022-10-15T02:25:52.390Z,96520.84
2022-10-15T02:28:23.236Z,96518.59
2022-10-15T02:31:20.241Z,96515.03
2022-10-15T02:33:51.806Z,96518.13
2022-10-15T02:36:22.333Z,96510.53
2022-10-15T02:38:53.535Z,96508.31
2022-10-15T02:41:22.760Z,96515.75
2022-10-15T02:43:51.947Z,96510.81
2022-10-15T02:46:21.370Z,96509.41
2022-10-15T02:48:50.270Z,96513.91
2022-10-15T02:51:21.434Z,96510.00
2022-10-15T02:53:50.109Z,96512.44
2022-10-15T02:56:20.643Z,96507.38
2022-10-15T02:58:49.715Z,96503.09
2022-10-15T03:01:20.416Z,96499.06
2022-10-15T03:03:50.035Z,96505.03
2022-10-15T03:06:19.328Z,96497.41
2022-10-15T03:08:51.232Z,96494.06
2022-10-15T03:11:19.643Z,96488.50
2022-10-15T03:13:48.399Z,96488.31
2022-10-15T03:16:16.883Z,96477.84
2022-10-15T03:18:47.807Z,96479.53
2022-10-15T03:21:17.854Z,96480.00
2022-10-15T03:23:46.757Z,96478.00
2022-10-15T03:26:21.890Z,96481.94
2022-10-15T03:28:51.934Z,96480.25
2022-10-15T03:31:34.002Z,96480.28
2022-10-15T03:34:05.220Z,96473.25
2022-10-15T03:36:34.288Z,96473.41
2022-10-15T03:39:06.335Z,96462.28
2022-10-15T03:41:36.960Z,96462.66
2022-10-15T03:44:09.122Z,96462.72
2022-10-15T03:46:42.340Z,96457.66
2022-10-15T03:49:11.945Z,96458.22
2022-10-15T03:51:41.250Z,96463.44
2022-10-15T03:54:13.425Z,96452.44
2022-10-15T03:56:51.059Z,96467.22
2022-10-15T03:59:26.733Z,96464.13
2022-10-15T04:02:01.146Z,96469.53
2022-10-15T04:04:30.545Z,96475.66
2022-10-15T04:06:59.475Z,96474.66
2022-10-15T04:09:28.261Z,96464.41
2022-10-15T04:12:19.018Z,96481.69
2022-10-15T04:14:48.225Z,96468.13
2022-10-15T04:17:17.843Z,96466.81
2022-10-15T04:19:47.799Z,96466.41
2022-10-15T04:22:17.855Z,96458.03
2022-10-15T04:24:51.323Z,96464.41
2022-10-15T04:27:29.982Z,96461.88
2022-10-15T04:30:12.899Z,96469.16
2022-10-15T04:32:46.734Z,96466.97
2022-10-15T04:35:16.400Z,96463.53
2022-10-15T04:37:54.427Z,96460.66
2022-10-15T04:40:22.960Z,96471.31
2022-10-15T04:42:53.531Z,96470.00
2022-10-15T04:47:58.294Z,96471.13
2022-10-15T04:50:27.552Z,96469.00
2022-10-15T04:53:32.085Z,96463.03
2022-10-15T04:56:02.409Z,96472.91
2022-10-15T04:58:33.614Z,96459.44
2022-10-15T05:01:03.365Z,96456.44
2022-10-15T05:03:38.621Z,96460.34
2022-10-15T05:06:11.912Z,96453.09
2022-10-15T05:08:43.481Z,96460.34
2022-10-15T05:11:23.175Z,96455.63
2022-10-15T05:13:56.478Z,96446.44
2022-10-15T05:16:28.475Z,96447.38
2022-10-15T05:19:00.576Z,96451.88
2022-10-15T05:21:32.804Z,96449.38
2022-10-15T05:24:06.096Z,96454.00
2022-10-15T05:26:55.400Z,96447.31
2022-10-15T05:29:26.847Z,96447.94
2022-10-15T05:31:55.973Z,96453.53
2022-10-15T05:34:30.528Z,96451.59
2022-10-15T05:37:06.626Z,96464.00
2022-10-15T05:39:35.258Z,96463.94
2022-10-15T05:42:03.656Z,96462.34
2022-10-15T05:44:48.449Z,96463.16
2022-10-15T05:47:17.315Z,96470.28
2022-10-15T05:49:49.554Z,96461.22
2022-10-15T05:52:26.276Z,96462.63
2022-10-15T05:55:14.346Z,96470.25
2022-10-15T05:57:43.144Z,96467.22
2022-10-15T06:00:15.116Z,96463.28
2022-10-15T06:02:43.756Z,96464.00
2022-10-15T06:05:13.167Z,96472.78
2022-10-15T06:07:42.008Z,96472.88
2022-10-15T06:10:11.313Z,96469.69
2022-10-15T06:12:39.766Z,96476.53
2022-10-15T06:15:09.343Z,96480.28
2022-10-15T06:17:40.283Z,96481.88
2022-10-15T06:20:09.532Z,96476.53
2022-10-15T06:22:38.771Z,96475.41
2022-10-15T06:25:09.385Z,96479.28
2022-10-15T06:27:38.037Z,96481.38
2022-10-15T06:30:07.839Z,96475.34
2022-10-15T06:32:36.593Z,96472.91
2022-10-15T06:35:07.567Z,96466.41
2022-10-15T06:37:36.428Z,96475.06
2022-10-15T06:40:05.551Z,96474.28
2022-10-15T06:42:35.410Z,96474.09
2022-10-15T06:45:04.316Z,96478.13
2022-10-15T06:47:33.404Z,96484.06
2022-10-15T06:50:02.378Z,96477.81
2022-10-15T06:52:33.480Z,96482.13
2022-10-15T06:55:02.012Z,96475.97
2022-10-15T06:57:30.853Z,96477.81
2022-10-15T06:59:59.704Z,96487.16
2022-10-15T07:02:28.009Z,96485.81
2022-10-15T07:04:57.706Z,96498.91
2022-10-15T07:07:26.707Z,96490.19
2022-10-15T07:09:56.875Z,96503.16
2022-10-15T07:12:25.668Z,96504.75
2022-10-15T07:14:54.394Z,96502.38
2022-10-15T07:17:26.381Z,96506.31
2022-10-15T07:19:57.307Z,96508.69
2022-10-15T07:22:43.807Z,96500.56
2022-10-15T07:25:20.328Z,96502.66
2022-10-15T07:27:51.247Z,96510.25
2022-10-15T07:30:20.633Z,96511.66
2022-10-15T07:32:50.730Z,96504.94
2022-10-15T07:35:22.247Z,96503.09
2022-10-15T07:38:02.640Z,96512.25
2022-10-15T07:40:39.818Z,96506.44
2022-10-15T07:43:11.490Z,96513.16
2022-10-15T07:45:41.981Z,96507.84
2022-10-15T07:48:10.568Z,96509.97
2022-10-15T07:50:42.305Z,96503.53
2022-10-15T07:53:18.043Z,96511.94
2022-10-15T07:55:54.872Z,96505.66
2022-10-15T07:58:23.888Z,96499.13
2022-10-15T08:00:57.790Z,96503.88
2022-10-15T08:03:35.527Z,96502.25
2022-10-15T08:06:23.240Z,96497.63
2022-10-15T08:08:54.587Z,96501.19
2022-10-15T08:11:58.158Z,96504.75
2022-10-15T08:14:29.648Z,96495.72
2022-10-15T08:17:00.685Z,96504.66
2022-10-15T08:19:33.701Z,96495.22
2022-10-15T08:28:05.690Z,96506.91
2022-10-15T08:30:46.504Z,96497.00
2022-10-15T08:33:47.185Z,96507.50
2022-10-15T08:36:16.596Z,96506.97
2022-10-15T08:39:13.469Z,96523.28
2022-10-15T08:41:50.499Z,96524.16
2022-10-15T08:44:59.196Z,96528.25
2022-10-15T08:47:39.993Z,96533.97
2022-10-15T08:50:45.297Z,96535.41
2022-10-15T08:53:30.318Z,96537.63
2022-10-15T08:56:48.373Z,96540.72
2022-10-15T08:59:29.846Z,96535.16
2022-10-15T09:02:16.364Z,96535.28
2022-10-15T09:05:00.302Z,96533.06
2022-10-15T09:10:59.117Z,96531.88
2022-10-15T09:13:44.284Z,96533.16
2022-10-15T09:16:16.988Z,96537.38
2022-10-15T09:19:02.364Z,96532.13
2022-10-15T09:21:33.206Z,96536.63
2022-10-15T09:24:07.375Z,96539.03
2022-10-15T09:26:56.167Z,96545.34
2022-10-15T09:29:39.511Z,96549.81
2022-10-15T09:32:42.138Z,96550.63
2022-10-15T09:38:38.186Z,96547.63
2022-10-15T09:41:18.390Z,96535.69
2022-10-15T09:43:51.398Z,96537.38
2022-10-15T09:46:25.306Z,96538.31
2022-10-15T09:49:04.719Z,96533.00
2022-10-15T09:51:39.439Z,96537.84
2022-10-15T09:54:19.030Z,96545.75
2022-10-15T09:57:00.211Z,96545.66
2022-10-15T09:59:34.170Z,96550.91
2022-10-15T10:02:21.234Z,96555.31
2022-10-15T10:04:59.550Z,96553.75
2022-10-15T10:07:35.214Z,96558.47
2022-10-15T10:10:31.479Z,96567.50
2022-10-15T10:13:00.301Z,96565.41
2022-10-15T10:15:35.447Z,96571.59
2022-10-15T10:18:08.068Z,96568.22
2022-10-15T10:20:54.910Z,96569.59
2022-10-15T10:23:33.745Z,96574.44
2022-10-15T10:26:03.787Z,96581.16
2022-10-15T10:28:39.332Z,96572.75
2022-10-15T10:31:12.789Z,96570.09
2022-10-15T10:33:47.862Z,96578.72
2022-10-15T10:36:30.836Z,96574.22
2022-10-15T10:39:40.405Z,96579.59
2022-10-15T10:42:24.470Z,96576.31
2022-10-15T10:45:01.281Z,96578.19
2022-10-15T10:47:40.735Z,96572.22
2022-10-15T10:50:29.282Z,96570.97
2022-10-15T10:53:00.729Z,96568.66
2022-10-15T10:55:43.334Z,96575.75
2022-10-15T10:58:22.155Z,96571.59
2022-10-15T11:00:55.692Z,96576.22
2022-10-15T11:03:32.863Z,96576.00
2022-10-15T11:06:17.711Z,96574.97
2022-10-15T11:08:56.984Z,96567.56
2022-10-15T11:11:39.442Z,96564.41
2022-10-15T11:14:20.031Z,96565.31
2022-10-15T11:17:02.152Z,96565.81
2022-10-15T11:22:49.824Z,96577.91
2022-10-15T11:25:30.712Z,96568.63
2022-10-15T11:28:14.889Z,96559.19
2022-10-15T11:30:52.112Z,96560.59
2022-10-15T11:33:41.591Z,96558.44
2022-10-15T11:36:33.521Z,96568.56
2022-10-15T11:39:19.348Z,96559.91
2022-10-15T11:41:55.692Z,96558.88
2022-10-15T11:44:37.193Z,96547.84
2022-10-15T11:47:32.677Z,96559.13
2022-10-15T11:50:15.084Z,96557.44
2022-10-15T11:53:11.081Z,96568.16
2022-10-15T11:55:43.517Z,96567.94
2022-10-15T11:58:18.177Z,96562.31
2022-10-15T12:00:53.217Z,96564.59
2022-10-15T12:03:26.183Z,96567.41
2022-10-15T12:05:58.671Z,96573.38
2022-10-15T12:08:32.447Z,96572.84
2022-10-15T12:11:15.681Z,96571.06
2022-10-15T12:13:52.046Z,96576.72
2022-10-15T12:16:30.252Z,96578.00
2022-10-15T12:19:09.018Z,96570.78
2022-10-15T12:21:40.845Z,96577.03
2022-10-15T12:24:50.396Z,96581.06
2022-10-15T12:27:37.069Z,96569.09
2022-10-15T12:30:24.035Z,96572.50
2022-10-15T12:32:55.647Z,96564.13
2022-10-15T12:35:37.088Z,96578.56
2022-10-15T12:38:20.391Z,96580.75
2022-10-15T12:40:57.720Z,96572.47
2022-10-15T12:43:28.183Z,96588.16
2022-10-15T12:45:59.318Z,96580.81
2022-10-15T12:48:48.127Z,96586.19
2022-10-15T12:51:41.553Z,96577.81
2022-10-15T12:54:36.983Z,96582.53
2022-10-15T12:57:58.908Z,96586.34
2022-10-15T13:00:39.584Z,96575.94
2022-10-15T13:03:33.006Z,96579.09
2022-10-15T13:06:35.620Z,96591.50
2022-10-15T13:09:26.198Z,96585.81
2022-10-15T13:11:57.156Z,96583.09
2022-10-15T13:14:31.585Z,96584.34
2022-10-15T13:17:04.124Z,96585.03
2022-10-15T13:19:38.336Z,96583.91
2022-10-15T13:22:20.980Z,96578.22
2022-10-15T13:24:51.217Z,96568.34
2022-10-15T13:27:24.725Z,96579.91
2022-10-15T13:29:58.991Z,96574.13
2022-10-15T13:32:30.582Z,96571.50
2022-10-15T13:35:00.654Z,96569.88
2022-10-15T13:37:33.484Z,96566.00
2022-10-15T13:40:07.916Z,96564.13
2022-10-15T13:42:37.453Z,96573.34
2022-10-15T13:45:17.726Z,96581.22
2022-10-15T13:47:50.282Z,96579.47
2022-10-15T13:50:21.941Z,96572.41
2022-10-15T13:52:54.027Z,96578.81
2022-10-15T13:55:26.722Z,96579.16
2022-10-15T13:58:01.295Z,96587.22
2022-10-15T14:00:33.009Z,96573.91
2022-10-15T14:03:08.936Z,96577.91
2022-10-15T14:05:37.922Z,96593.63
2022-10-15T14:08:07.099Z,96596.56
2022-10-15T14:10:38.093Z,96591.03
2022-10-15T14:13:06.678Z,96592.66
2022-10-15T14:15:48.922Z,96610.06
2022-10-15T14:18:27.827Z,96609.53
2022-10-15T14:20:56.841Z,96605.44
2022-10-15T14:23:26.987Z,96607.53
2022-10-15T14:26:01.048Z,96609.56
2022-10-15T14:28:32.465Z,96600.41
2022-10-15T14:31:31.274Z,96600.94
2022-10-15T14:34:00.177Z,96593.84
2022-10-15T14:36:32.205Z,96602.38
2022-10-15T14:39:26.284Z,96599.66
2022-10-15T14:42:02.338Z,96597.75
2022-10-15T14:44:47.042Z,96607.06
2022-10-15T14:47:24.251Z,96605.81
2022-10-15T14:49:56.567Z,96619.03
2022-10-15T14:52:25.597Z,96613.13
2022-10-15T14:55:03.076Z,96612.28
2022-10-15T14:57:38.099Z,96612.00
2022-10-15T15:00:16.163Z,96610.47
2022-10-15T15:02:44.995Z,96610.22
2022-10-15T15:05:22.912Z,96610.38
2022-10-15T15:07:52.111Z,96616.91
2022-10-15T15:10:21.396Z,96621.78
2022-10-15T15:12:54.862Z,96616.47
2022-10-15T15:15:26.084Z,96628.31
2022-10-15T15:17:55.068Z,96611.16
2022-10-15T15:20:26.214Z,96621.75
2022-10-15T15:22:55.958Z,96626.50
2022-10-15T15:25:29.764Z,96628.19
2022-10-15T15:28:00.350Z,96626.69
2022-10-15T15:30:31.411Z,96635.31
2022-10-15T15:33:01.158Z,96625.91
2022-10-15T15:35:37.217Z,96626.47
2022-10-15T15:38:08.194Z,96628.28
2022-10-15T15:40:37.538Z,96633.22
2022-10-15T15:43:07.668Z,96627.59
2022-10-15T15:45:36.407Z,96634.59
2022-10-15T15:48:05.452Z,96632.91
2022-10-15T15:50:35.375Z,96642.78
2022-10-15T15:53:04.739Z,96637.81
2022-10-15T15:55:33.197Z,96641.13
2022-10-15T15:58:01.998Z,96648.56
2022-10-15T16:00:31.683Z,96655.16
2022-10-15T16:03:00.547Z,96646.81
2022-10-15T16:05:29.123Z,96655.91
2022-10-15T16:07:58.582Z,96652.53
2022-10-15T16:10:27.794Z,96659.13
2022-10-15T16:12:56.819Z,96658.72
2022-10-15T16:15:25.977Z,96669.13
2022-10-15T16:17:56.549Z,96675.63
2022-10-15T16:20:25.462Z,96673.00
2022-10-15T16:22:54.606Z,96674.69
2022-10-15T16:25:26.408Z,96677.22
2022-10-15T16:28:01.855Z,96682.69
2022-10-15T16:30:30.516Z,96672.16
2022-10-15T16:33:00.986Z,96674.72
2022-10-15T16:35:29.907Z,96675.78
2022-10-15T16:37:58.297Z,96677.47
2022-10-15T16:40:26.903Z,96680.50
2022-10-15T16:42:55.644Z,96673.47
2022-10-15T16:45:25.042Z,96677.34
2022-10-15T16:47:56.159Z,96685.38
2022-10-15T16:50:25.965Z,96680.19
2022-10-15T16:52:54.325Z,96689.19
2022-10-15T16:55:22.369Z,96693.63
2022-10-15T16:57:51.059Z,96695.72
2022-10-15T17:00:19.573Z,96701.84
2022-10-15T17:02:47.836Z,96706.56
2022-10-15T17:05:15.881Z,96718.75
2022-10-15T17:07:45.368Z,96715.81
2022-10-15T17:10:14.817Z,96715.47
2022-10-15T17:12:43.508Z,96710.34
2022-10-15T17:15:12.360Z,96708.97
2022-10-15T17:17:40.683Z,96708.34
2022-10-15T17:20:10.310Z,96721.72
2022-10-15T17:22:38.329Z,96729.47
2022-10-15T17:25:08.426Z,96735.16
2022-10-15T17:27:36.683Z,96727.25
2022-10-15T17:30:05.530Z,96728.88
2022-10-15T17:32:33.865Z,96725.69
2022-10-15T17:35:03.940Z,96728.16
2022-10-15T17:37:32.959Z,96734.66
2022-10-15T17:40:01.164Z,96740.56
2022-10-15T17:42:30.954Z,96740.31
2022-10-15T17:44:59.210Z,96735.81
2022-10-15T17:47:27.803Z,96738.25
2022-10-15T17:49:56.267Z,96740.78
2022-10-15T17:52:24.380Z,96754.03
2022-10-15T17:54:52.984Z,96756.00
2022-10-15T17:57:20.977Z,96762.00
2022-10-15T17:59:51.238Z,96763.97
2022-10-15T18:02:19.769Z,96757.63
2022-10-15T18:04:49.560Z,96757.91
2022-10-15T18:07:19.913Z,96763.91
2022-10-15T18:09:47.878Z,96763.50
2022-10-15T18:12:16.142Z,96769.88
2022-10-15T18:14:45.033Z,96774.75
2022-10-15T18:17:15.658Z,96772.34
2022-10-15T18:19:44.206Z,96769.53
2022-10-15T18:22:12.910Z,96771.59
2022-10-15T18:24:41.139Z,96768.69
2022-10-15T18:27:09.336Z,96771.28
2022-10-15T18:29:37.974Z,96770.53
2022-10-15T18:32:07.594Z,96769.44
2022-10-15T18:34:37.571Z,96776.50
2022-10-15T18:37:06.026Z,96792.31
2022-10-15T18:39:34.364Z,96788.13
2022-10-15T18:42:03.023Z,96787.44
2022-10-15T18:44:33.387Z,96790.16
2022-10-15T18:47:01.813Z,96789.44
2022-10-15T18:49:30.759Z,96796.00
2022-10-15T18:52:06.485Z,96794.88
2022-10-15T18:54:44.414Z,96801.16
2022-10-15T18:57:12.611Z,96807.53
2022-10-15T18:59:41.004Z,96804.97
2022-10-15T19:02:10.607Z,96810.03
2022-10-15T19:04:38.700Z,96807.22
2022-10-15T19:07:08.480Z,96811.91
2022-10-15T19:09:36.825Z,96807.44
2022-10-15T19:12:05.809Z,96806.78
2022-10-15T19:14:34.066Z,96809.59
2022-10-15T19:17:03.289Z,96804.78
2022-10-15T19:19:31.587Z,96808.25
2022-10-15T19:22:00.690Z,96803.22
2022-10-15T19:24:30.368Z,96794.22
2022-10-15T19:26:58.667Z,96807.97
2022-10-15T19:29:30.292Z,96809.19
2022-10-15T19:32:04.008Z,96816.88
2022-10-15T19:34:34.543Z,96815.13
2022-10-15T19:37:04.297Z,96818.94
2022-10-15T19:39:39.674Z,96820.25
2022-10-15T19:42:08.010Z,96823.53
2022-10-15T19:44:36.452Z,96813.78
2022-10-15T19:47:04.561Z,96813.88
2022-10-15T19:49:34.030Z,96804.88
2022-10-15T19:52:03.272Z,96804.28
2022-10-15T19:54:32.598Z,96805.81
2022-10-15T19:57:02.862Z,96805.97
2022-10-15T19:59:31.554Z,96809.41
2022-10-15T20:02:00.089Z,96817.81
2022-10-15T20:04:28.841Z,96821.84
2022-10-15T20:06:57.537Z,96817.81
2022-10-15T20:09:26.101Z,96821.72
2022-10-15T20:11:54.604Z,96821.34
2022-10-15T20:14:24.327Z,96824.44
2022-10-15T20:16:53.190Z,96837.59
2022-10-15T20:19:22.082Z,96832.31
2022-10-15T20:21:51.181Z,96837.75
2022-10-15T20:24:19.747Z,96838.91
2022-10-15T20:26:48.147Z,96847.69
2022-10-15T20:29:17.499Z,96852.19
2022-10-15T20:31:47.344Z,96861.53
2022-10-15T20:34:16.157Z,96863.19
2022-10-15T20:36:45.505Z,96869.44
2022-10-15T20:39:13.977Z,96870.88
2022-10-15T20:41:42.222Z,96867.59
2022-10-15T20:44:12.196Z,96874.94
2022-10-15T20:46:45.071Z,96880.44
2022-10-15T20:49:18.723Z,96877.06
2022-10-15T20:51:46.956Z,96881.75
2022-10-15T20:54:16.674Z,96876.81
2022-10-15T20:56:45.100Z,96881.19
2022-10-15T20:59:13.599Z,96891.69
2022-10-15T21:01:42.488Z,96893.66
2022-10-15T21:04:10.892Z,96898.16
2022-10-15T21:06:41.194Z,96903.88
2022-10-15T21:09:09.588Z,96914.72
2022-10-15T21:11:41.537Z,96914.19
2022-10-15T21:14:09.870Z,96919.44
2022-10-15T21:16:38.157Z,96909.97
2022-10-15T21:19:06.713Z,96903.38
2022-10-15T21:21:35.034Z,96914.81
2022-10-15T21:24:05.309Z,96916.50
2022-10-15T21:26:34.263Z,96925.13
2022-10-15T21:29:02.685Z,96919.41
2022-10-15T21:31:31.148Z,96910.44
2022-10-15T21:33:59.517Z,96918.19
2022-10-15T21:36:29.502Z,96915.00
2022-10-15T21:39:00.921Z,96922.84
2022-10-15T21:41:33.316Z,96929.63
2022-10-15T21:44:02.633Z,96924.84
2022-10-15T21:46:31.579Z,96926.00
2022-10-15T21:49:00.784Z,96932.94
2022-10-15T21:51:31.251Z,96929.94
2022-10-15T21:54:01.359Z,96932.94
2022-10-15T21:56:31.624Z,96936.81
2022-10-15T21:59:00.912Z,96939.66
2022-10-15T22:01:31.658Z,96941.59
2022-10-15T22:04:01.769Z,96934.50
2022-10-15T22:06:30.167Z,96934.47
2022-10-15T22:08:59.415Z,96929.13
2022-10-15T22:11:31.285Z,96932.50
2022-10-15T22:14:01.738Z,96937.28
2022-10-15T22:16:29.946Z,96929.19
2022-10-15T22:18:58.731Z,96930.06
2022-10-15T22:21:29.453Z,96924.53
2022-10-15T22:23:59.575Z,96921.75
2022-10-15T22:26:32.734Z,96919.13
2022-10-15T22:29:02.846Z,96917.81
2022-10-15T22:31:31.847Z,96910.50
2022-10-15T22:34:00.792Z,96917.31
2022-10-15T22:36:31.376Z,96911.00
2022-10-15T22:39:01.880Z,96913.91
2022-10-15T22:41:34.216Z,96909.28
2022-10-15T22:44:03.379Z,96916.34
2022-10-15T22:46:34.402Z,96918.25
2022-10-15T22:49:02.888Z,96921.91
2022-10-15T22:51:31.463Z,96917.09
2022-10-15T22:54:00.762Z,96919.28
2022-10-15T22:56:31.588Z,96919.63
2022-10-15T22:59:00.693Z,96917.75
2022-10-15T23:01:31.011Z,96923.97
2022-10-15T23:04:01.684Z,96924.78
2022-10-15T23:06:30.488Z,96922.94
2022-10-15T23:08:59.779Z,96928.88
2022-10-15T23:11:30.422Z,96923.78
2022-10-15T23:14:02.191Z,96926.38
2022-10-15T23:16:32.631Z,96941.47
2022-10-15T23:19:02.567Z,96929.69
2022-10-15T23:21:33.692Z,96945.19
2022-10-15T23:24:02.650Z,96954.09
2022-10-15T23:26:31.204Z,96948.69
2022-10-15T23:29:03.426Z,96953.81
2022-10-15T23:31:34.393Z,96960.03
2022-10-15T23:34:06.019Z,96966.88
2022-10-15T23:36:35.245Z,96965.44
2022-10-15T23:39:06.137Z,96961.69
2022-10-15T23:41:34.720Z,96957.50
2022-10-15T23:44:04.995Z,96955.72
2022-10-15T23:46:33.159Z,96950.13
2022-10-15T23:49:01.457Z,96935.28
2022-10-15T23:51:31.410Z,96939.25
2022-10-15T23:54:01.905Z,96932.44
2022-10-15T23:56:31.301Z,96937.81
2022-10-15T23:59:01.376Z,96945.44
